createdAt,value
2019-03-15T00:03:56.619Z,1.20
2019-03-15T00:08:48.307Z,1.87
2019-03-15T00:13:39.975Z,1.60
2019-03-15T00:18:30.895Z,1.50
2019-03-15T00:23:22.553Z,1.10
2019-03-15T00:28:14.239Z,1.23
2019-03-15T00:33:05.164Z,1.03
2019-03-15T00:37:56.595Z,1.10
2019-03-15T00:42:47.115Z,1.30
2019-03-15T00:47:38.039Z,1.50
2019-03-15T00:52:28.961Z,1.17
2019-03-15T00:57:20.705Z,1.17
2019-03-15T01:02:11.647Z,1.57
2019-03-15T01:07:02.524Z,1.30
2019-03-15T01:11:53.448Z,1.80
2019-03-15T01:16:44.377Z,1.47
2019-03-15T01:21:35.307Z,1.50
2019-03-15T01:26:26.983Z,1.87
2019-03-15T01:31:17.907Z,1.87
2019-03-15T01:36:08.831Z,1.67
2019-03-15T01:40:59.915Z,1.80
2019-03-15T01:45:50.725Z,2.30
2019-03-15T01:50:42.383Z,1.67
2019-03-15T01:55:33.328Z,2.03
2019-03-15T02:00:24.239Z,2.63
2019-03-15T02:05:15.138Z,1.93
2019-03-15T02:10:06.043Z,1.50
2019-03-15T02:14:56.946Z,2.37
2019-03-15T02:19:47.864Z,2.50
2019-03-15T02:24:38.782Z,2.07
2019-03-15T02:29:29.707Z,1.47
2019-03-15T02:34:21.376Z,2.20
2019-03-15T02:39:12.300Z,2.20
2019-03-15T02:44:03.242Z,2.20
2019-03-15T02:48:54.164Z,2.50
2019-03-15T02:53:45.094Z,2.20
2019-03-15T02:58:36.004Z,1.67
2019-03-15T03:03:26.924Z,1.63
2019-03-15T03:08:17.839Z,2.10
2019-03-15T03:13:08.770Z,1.50
2019-03-15T03:17:59.688Z,1.98
2019-03-15T03:22:50.599Z,1.77
2019-03-15T03:27:41.567Z,1.80
2019-03-15T03:32:32.442Z,1.57
2019-03-15T03:37:24.236Z,2.10
2019-03-15T03:42:15.044Z,1.53
2019-03-15T03:47:05.973Z,1.70
2019-03-15T03:51:57.008Z,1.58
2019-03-15T03:56:47.915Z,1.70
2019-03-15T04:01:38.824Z,1.47
2019-03-15T04:06:29.724Z,1.40
2019-03-15T04:11:21.384Z,1.70
2019-03-15T04:16:12.304Z,1.37
2019-03-15T04:21:03.206Z,1.90
2019-03-15T04:25:54.867Z,1.10
2019-03-15T04:30:45.780Z,1.92
2019-03-15T04:35:36.692Z,1.93
2019-03-15T04:40:27.603Z,1.67
2019-03-15T04:45:19.601Z,1.30
2019-03-15T04:50:10.518Z,1.90
2019-03-15T04:55:01.479Z,1.70
2019-03-15T04:59:52.380Z,1.67
2019-03-15T05:04:43.304Z,1.90
2019-03-15T05:09:34.951Z,1.43
2019-03-15T05:14:26.593Z,2.05
2019-03-15T05:19:18.241Z,1.87
2019-03-15T05:24:09.226Z,1.67
2019-03-15T05:29:00.143Z,1.83
2019-03-15T05:33:51.059Z,1.50
2019-03-15T05:38:43.532Z,1.70
2019-03-15T05:43:34.411Z,2.05
2019-03-15T05:48:26.067Z,1.60
2019-03-15T05:53:16.987Z,2.00
2019-03-15T05:58:07.940Z,1.80
2019-03-15T06:02:58.844Z,1.63
2019-03-15T06:07:49.783Z,1.60
2019-03-15T06:12:40.678Z,2.57
2019-03-15T06:17:32.343Z,1.90
2019-03-15T06:22:23.269Z,1.90
2019-03-15T06:27:21.308Z,2.20
2019-03-15T06:32:12.325Z,1.83
2019-03-15T06:37:03.165Z,2.30
2019-03-15T06:41:54.835Z,1.93
2019-03-15T06:46:45.751Z,2.23
2019-03-15T06:51:36.651Z,2.63
2019-03-15T06:56:27.565Z,2.50
2019-03-15T07:01:18.484Z,2.20
2019-03-15T07:06:09.390Z,2.00
2019-03-15T07:11:01.052Z,2.20
2019-03-15T07:15:51.951Z,1.87
2019-03-15T07:20:42.863Z,2.93
2019-03-15T07:25:34.533Z,2.17
2019-03-15T07:30:25.436Z,2.43
2019-03-15T07:35:16.347Z,2.07
2019-03-15T07:40:08.236Z,2.70
2019-03-15T07:44:59.166Z,2.33
2019-03-15T07:49:50.821Z,2.40
2019-03-15T07:54:42.496Z,1.97
2019-03-15T07:59:33.414Z,1.93
2019-03-15T08:04:24.415Z,2.20
2019-03-15T08:09:15.268Z,2.30
2019-03-15T08:14:06.184Z,2.23
2019-03-15T08:18:57.124Z,2.13
2019-03-15T08:23:48.056Z,1.90
2019-03-15T08:28:40.473Z,1.83
2019-03-15T08:33:31.399Z,2.70
2019-03-15T08:38:22.305Z,2.40
2019-03-15T08:43:13.216Z,2.20
2019-03-15T08:48:04.185Z,2.13
2019-03-15T08:52:55.092Z,2.90
2019-03-15T08:57:46.073Z,3.25
2019-03-15T09:02:36.984Z,2.40
2019-03-15T09:07:27.895Z,2.50
2019-03-15T09:12:18.814Z,3.03
2019-03-15T09:17:09.746Z,2.83
2019-03-15T09:22:00.889Z,2.77
2019-03-15T09:26:51.608Z,3.80
2019-03-15T09:31:47.647Z,3.60
2019-03-15T09:36:34.221Z,4.00
2019-03-15T09:41:31.450Z,3.73
2019-03-15T09:46:16.094Z,3.90
2019-03-15T09:51:07.017Z,3.17
2019-03-15T09:55:57.922Z,3.13
2019-03-15T10:00:48.836Z,3.47
2019-03-15T10:05:39.750Z,2.80
2019-03-15T10:10:30.674Z,3.55
2019-03-15T10:15:21.596Z,3.30
2019-03-15T10:20:12.867Z,3.60
2019-03-15T10:25:04.254Z,3.50
2019-03-15T10:29:55.180Z,2.70
2019-03-15T10:34:46.098Z,2.20
2019-03-15T10:39:37.028Z,3.27
2019-03-15T10:44:27.954Z,3.73
2019-03-15T10:49:18.854Z,3.23
2019-03-15T10:54:09.761Z,2.40
2019-03-15T10:59:00.713Z,2.77
2019-03-15T11:03:51.655Z,2.40
2019-03-15T11:08:43.320Z,3.10
2019-03-15T11:13:34.249Z,3.20
2019-03-15T11:18:25.176Z,2.80
2019-03-15T11:23:16.095Z,2.90
2019-03-15T11:28:07.048Z,4.00
2019-03-15T11:32:58.017Z,3.50
2019-03-15T11:37:48.935Z,3.73
2019-03-15T11:42:39.868Z,2.90
2019-03-15T11:47:45.863Z,3.60
2019-03-15T11:52:21.759Z,3.70
2019-03-15T11:57:12.670Z,3.47
2019-03-15T12:02:04.511Z,3.47
2019-03-15T12:06:54.515Z,4.40
2019-03-15T12:11:45.436Z,3.90
2019-03-15T12:16:36.355Z,2.50
2019-03-15T12:21:27.275Z,3.77
2019-03-15T12:26:18.178Z,3.03
2019-03-15T12:31:09.107Z,2.53
2019-03-15T12:36:03.195Z,3.40
2019-03-15T12:40:51.724Z,3.23
2019-03-15T12:45:42.629Z,3.30
2019-03-15T12:50:33.548Z,3.20
2019-03-15T12:55:24.474Z,3.67
2019-03-15T13:00:17.226Z,3.13
2019-03-15T13:05:08.140Z,3.20
2019-03-15T13:09:59.051Z,3.00
2019-03-15T13:14:49.958Z,3.60
2019-03-15T13:19:54.252Z,3.50
2019-03-15T13:24:32.556Z,2.50
2019-03-15T13:29:23.480Z,2.60
2019-03-15T13:34:14.444Z,2.87
2019-03-15T13:39:05.343Z,2.40
2019-03-15T13:43:56.259Z,2.83
2019-03-15T13:48:47.927Z,2.30
2019-03-15T13:53:39.593Z,2.60
2019-03-15T13:58:30.504Z,2.33
2019-03-15T14:03:21.900Z,2.20
2019-03-15T14:08:13.687Z,1.70
2019-03-15T14:13:04.616Z,2.60
2019-03-15T14:17:55.514Z,2.10
2019-03-15T14:22:46.500Z,2.00
2019-03-15T14:27:38.187Z,2.25
2019-03-15T14:32:29.099Z,2.40
2019-03-15T14:37:20.235Z,1.97
2019-03-15T14:42:11.041Z,1.90
2019-03-15T14:47:02.640Z,1.57
2019-03-15T14:51:53.566Z,1.73
2019-03-15T14:56:44.545Z,1.70
2019-03-15T15:01:35.466Z,2.03
2019-03-15T15:06:26.393Z,1.70
2019-03-15T15:11:18.784Z,1.83
2019-03-15T15:16:09.728Z,1.30
2019-03-15T15:21:00.630Z,1.43
2019-03-15T15:25:51.533Z,1.70
2019-03-15T15:30:42.454Z,1.50
2019-03-15T15:35:33.475Z,1.10
2019-03-15T15:40:24.359Z,1.50
2019-03-15T15:45:15.288Z,1.33
2019-03-15T15:50:07.927Z,1.33
2019-03-15T15:54:58.834Z,1.30
2019-03-15T15:59:49.762Z,0.93
2019-03-15T16:04:41.428Z,1.20
2019-03-15T16:09:33.084Z,1.63
2019-03-15T16:14:24.013Z,1.73
2019-03-15T16:19:14.948Z,1.93
2019-03-15T16:24:05.869Z,1.80
2019-03-15T16:28:56.770Z,1.70
2019-03-15T16:33:47.727Z,1.43
2019-03-15T16:38:40.123Z,1.70
2019-03-15T16:43:31.450Z,1.30
2019-03-15T16:48:22.377Z,1.27
2019-03-15T16:53:13.292Z,1.10
2019-03-15T16:58:04.206Z,1.30
2019-03-15T17:02:55.133Z,1.30
2019-03-15T17:07:46.116Z,1.30
2019-03-15T17:12:37.044Z,1.60
2019-03-15T17:17:28.714Z,1.60
2019-03-15T17:22:19.619Z,1.50
2019-03-15T17:27:10.544Z,1.30
2019-03-15T17:32:01.477Z,1.00
2019-03-15T17:37:05.719Z,1.20
2019-03-15T17:41:43.325Z,0.90
2019-03-15T17:46:34.226Z,1.40
2019-03-15T17:51:25.142Z,1.27
2019-03-15T17:56:16.107Z,1.30
2019-03-15T18:01:07.010Z,1.23
2019-03-15T18:05:57.943Z,1.03
2019-03-15T18:10:48.867Z,0.90
2019-03-15T18:15:39.800Z,1.00
2019-03-15T18:20:32.149Z,1.30
2019-03-15T18:25:23.233Z,1.20
2019-03-15T18:30:14.147Z,0.90
2019-03-15T18:35:05.063Z,1.30
2019-03-15T18:39:55.976Z,1.30
2019-03-15T18:44:46.905Z,1.20
2019-03-15T18:49:37.850Z,1.50
2019-03-15T18:54:28.762Z,1.37
2019-03-15T18:59:40.013Z,1.10
2019-03-15T19:04:25.632Z,1.00
2019-03-15T19:09:16.549Z,0.90
2019-03-15T19:14:07.472Z,0.90
2019-03-15T19:18:58.400Z,0.87
2019-03-15T19:23:49.306Z,1.40
2019-03-15T19:28:40.208Z,0.80
2019-03-15T19:33:31.135Z,1.10
2019-03-15T19:38:22.056Z,1.07
2019-03-15T19:43:12.973Z,1.47
2019-03-15T19:48:03.892Z,1.00
2019-03-15T19:52:54.814Z,0.77
2019-03-15T19:57:45.731Z,0.67
2019-03-15T20:02:36.658Z,1.50
2019-03-15T20:07:30.423Z,1.00
2019-03-15T20:12:21.352Z,1.67
2019-03-15T20:17:12.276Z,1.10
2019-03-15T20:22:03.196Z,1.00
2019-03-15T20:26:54.108Z,1.67
2019-03-15T20:31:45.028Z,1.00
2019-03-15T20:36:35.939Z,1.00
2019-03-15T20:41:26.865Z,1.53
2019-03-15T20:46:17.788Z,1.20
2019-03-15T20:51:08.707Z,1.27
2019-03-15T20:55:59.623Z,1.43
2019-03-15T21:00:50.545Z,1.00
2019-03-15T21:05:41.480Z,1.60
2019-03-15T21:10:32.455Z,1.57
2019-03-15T21:15:24.103Z,1.70
2019-03-15T21:20:15.956Z,1.48
2019-03-15T21:25:06.894Z,1.27
2019-03-15T21:29:57.806Z,1.57
2019-03-15T21:34:48.710Z,1.03
2019-03-15T21:39:39.623Z,1.80
2019-03-15T21:44:30.539Z,1.30
2019-03-15T21:49:21.458Z,1.92
2019-03-15T21:54:12.392Z,1.43
2019-03-15T21:59:03.312Z,1.90
2019-03-15T22:03:54.748Z,1.93
2019-03-15T22:08:45.657Z,1.23
2019-03-15T22:13:36.628Z,1.70
2019-03-15T22:18:27.549Z,1.70
2019-03-15T22:23:19.198Z,1.60
2019-03-15T22:28:10.853Z,2.60
2019-03-15T22:33:01.781Z,1.83
2019-03-15T22:37:52.693Z,1.80
2019-03-15T22:42:43.612Z,1.67
2019-03-15T22:47:34.533Z,1.40
2019-03-15T22:52:25.451Z,2.17
2019-03-15T22:57:16.376Z,1.53
2019-03-15T23:02:07.316Z,1.80
2019-03-15T23:06:58.231Z,1.60
2019-03-15T23:11:49.147Z,2.00
2019-03-15T23:16:40.280Z,1.60
2019-03-15T23:21:31.208Z,1.70
2019-03-15T23:26:22.901Z,2.50
2019-03-15T23:31:13.826Z,1.10
2019-03-15T23:36:04.744Z,1.33
2019-03-15T23:40:55.658Z,1.93
2019-03-15T23:45:46.563Z,1.70
2019-03-15T23:50:38.243Z,2.10
2019-03-15T23:55:29.157Z,1.63
